Terminal Aerodrome Forecast
Issued by NWS Twin Cities, MN

Home | Current Version | Previous Version | Graphics & Text | Print | Product List | Glossary On
Versions: 1 2 3 4 5 6 7 8 9 10 11 12 13 14 15 16 17 18 19 20 21 22 23 24 25
000
FTUS43 KMPX 120500
TAFMSP
TAF
KMSP 120520Z 1206/1312 35007KT P6SM SCT060
     FM121400 33005KT P6SM BKN050 OVC090
     FM121800 31005KT P6SM -SHRA OVC050
     FM130000 29003KT P6SM OVC080
     FM130300 VRB03KT P6SM SCT120=

USA.gov is the U.S. government's official web portal to all federal, state and local government web resources and services.